sensor_id;sensor_type;location;lat;lon;timestamp;P1;durP1;ratioP1;P2;durP2;ratioP2
12437;SDS011;6283;51.330;12.374;2022-09-13T00:00:06;6.50;;;5.90;;
12437;SDS011;6283;51.330;12.374;2022-09-13T00:02:32;6.28;;;5.68;;
12437;SDS011;6283;51.330;12.374;2022-09-13T00:04:58;6.83;;;5.80;;
12437;SDS011;6283;51.330;12.374;2022-09-13T00:07:23;7.90;;;6.97;;
12437;SDS011;6283;51.330;12.374;2022-09-13T00:09:49;7.32;;;6.70;;
12437;SDS011;6283;51.330;12.374;2022-09-13T00:12:15;7.33;;;6.33;;
12437;SDS011;6283;51.330;12.374;2022-09-13T00:14:40;6.90;;;6.30;;
12437;SDS011;6283;51.330;12.374;2022-09-13T00:17:06;6.20;;;5.67;;
12437;SDS011;6283;51.330;12.374;2022-09-13T00:19:32;6.33;;;5.73;;
12437;SDS011;6283;51.330;12.374;2022-09-13T00:21:58;6.60;;;6.00;;
12437;SDS011;6283;51.330;12.374;2022-09-13T00:24:23;6.18;;;5.68;;
12437;SDS011;6283;51.330;12.374;2022-09-13T00:26:49;7.60;;;6.32;;
12437;SDS011;6283;51.330;12.374;2022-09-13T00:29:14;8.10;;;6.25;;
12437;SDS011;6283;51.330;12.374;2022-09-13T00:31:40;7.53;;;5.82;;
12437;SDS011;6283;51.330;12.374;2022-09-13T00:34:06;6.63;;;5.95;;
12437;SDS011;6283;51.330;12.374;2022-09-13T00:36:31;6.57;;;5.97;;
12437;SDS011;6283;51.330;12.374;2022-09-13T00:38:58;6.90;;;6.13;;
12437;SDS011;6283;51.330;12.374;2022-09-13T00:41:24;7.35;;;6.65;;
12437;SDS011;6283;51.330;12.374;2022-09-13T00:46:18;6.13;;;5.50;;
12437;SDS011;6283;51.330;12.374;2022-09-13T00:48:47;6.30;;;5.70;;
12437;SDS011;6283;51.330;12.374;2022-09-13T00:51:15;6.90;;;6.27;;
12437;SDS011;6283;51.330;12.374;2022-09-13T00:53:42;6.83;;;6.20;;
12437;SDS011;6283;51.330;12.374;2022-09-13T00:56:14;6.77;;;6.07;;
12437;SDS011;6283;51.330;12.374;2022-09-13T00:58:53;6.27;;;5.67;;
12437;SDS011;6283;51.330;12.374;2022-09-13T01:01:26;7.80;;;5.67;;
12437;SDS011;6283;51.330;12.374;2022-09-13T01:03:56;5.27;;;4.77;;
12437;SDS011;6283;51.330;12.374;2022-09-13T01:06:23;5.80;;;5.20;;
12437;SDS011;6283;51.330;12.374;2022-09-13T01:08:57;6.27;;;4.97;;
12437;SDS011;6283;51.330;12.374;2022-09-13T01:11:32;6.87;;;5.80;;
12437;SDS011;6283;51.330;12.374;2022-09-13T01:14:19;7.53;;;5.63;;
12437;SDS011;6283;51.330;12.374;2022-09-13T01:16:47;5.93;;;5.40;;
12437;SDS011;6283;51.330;12.374;2022-09-13T01:19:14;8.33;;;5.77;;
12437;SDS011;6283;51.330;12.374;2022-09-13T01:21:57;5.60;;;5.10;;
12437;SDS011;6283;51.330;12.374;2022-09-13T01:24:43;5.80;;;5.20;;
12437;SDS011;6283;51.330;12.374;2022-09-13T01:30:21;7.27;;;5.10;;
12437;SDS011;6283;51.330;12.374;2022-09-13T01:35:53;8.00;;;5.23;;
12437;SDS011;6283;51.330;12.374;2022-09-13T01:41:05;5.70;;;5.20;;
12437;SDS011;6283;51.330;12.374;2022-09-13T01:49:37;6.93;;;5.27;;
12437;SDS011;6283;51.330;12.374;2022-09-13T01:57:40;5.87;;;5.27;;
12437;SDS011;6283;51.330;12.374;2022-09-13T02:00:13;5.27;;;4.83;;
12437;SDS011;6283;51.330;12.374;2022-09-13T02:02:43;6.50;;;4.93;;
12437;SDS011;6283;51.330;12.374;2022-09-13T02:08:15;5.47;;;4.97;;
12437;SDS011;6283;51.330;12.374;2022-09-13T02:11:27;5.33;;;4.83;;
12437;SDS011;6283;51.330;12.374;2022-09-13T02:13:37;5.10;;;4.60;;
12437;SDS011;6283;51.330;12.374;2022-09-13T02:16:08;5.17;;;4.67;;
12437;SDS011;6283;51.330;12.374;2022-09-13T02:18:57;6.33;;;4.87;;
12437;SDS011;6283;51.330;12.374;2022-09-13T02:21:28;6.27;;;5.67;;
12437;SDS011;6283;51.330;12.374;2022-09-13T02:24:03;5.50;;;5.00;;
12437;SDS011;6283;51.330;12.374;2022-09-13T02:26:32;5.27;;;4.77;;
12437;SDS011;6283;51.330;12.374;2022-09-13T02:29:01;6.40;;;5.00;;
12437;SDS011;6283;51.330;12.374;2022-09-13T02:31:41;6.83;;;4.93;;
12437;SDS011;6283;51.330;12.374;2022-09-13T02:34:37;7.97;;;5.20;;
12437;SDS011;6283;51.330;12.374;2022-09-13T02:37:08;5.17;;;4.73;;
12437;SDS011;6283;51.330;12.374;2022-09-13T02:39:35;7.50;;;5.00;;
12437;SDS011;6283;51.330;12.374;2022-09-13T02:44:49;6.93;;;5.20;;
12437;SDS011;6283;51.330;12.374;2022-09-13T02:56:09;5.63;;;4.53;;
12437;SDS011;6283;51.330;12.374;2022-09-13T03:01:49;5.30;;;4.77;;
12437;SDS011;6283;51.330;12.374;2022-09-13T03:04:20;6.20;;;4.33;;
12437;SDS011;6283;51.330;12.374;2022-09-13T03:06:47;5.80;;;4.80;;
12437;SDS011;6283;51.330;12.374;2022-09-13T03:09:14;4.70;;;4.27;;
12437;SDS011;6283;51.330;12.374;2022-09-13T03:11:59;5.23;;;4.73;;
12437;SDS011;6283;51.330;12.374;2022-09-13T03:14:54;8.80;;;5.20;;
12437;SDS011;6283;51.330;12.374;2022-09-13T03:23:08;5.73;;;5.00;;
12437;SDS011;6283;51.330;12.374;2022-09-13T03:31:17;5.90;;;5.30;;
12437;SDS011;6283;51.330;12.374;2022-09-13T03:33:51;5.40;;;4.73;;
12437;SDS011;6283;51.330;12.374;2022-09-13T03:36:43;5.33;;;4.67;;
12437;SDS011;6283;51.330;12.374;2022-09-13T03:41:53;5.03;;;4.47;;
12437;SDS011;6283;51.330;12.374;2022-09-13T03:44:22;5.17;;;4.67;;
12437;SDS011;6283;51.330;12.374;2022-09-13T03:46:54;6.20;;;4.50;;
12437;SDS011;6283;51.330;12.374;2022-09-13T03:49:24;6.53;;;4.70;;
12437;SDS011;6283;51.330;12.374;2022-09-13T03:51:51;6.17;;;4.90;;
12437;SDS011;6283;51.330;12.374;2022-09-13T03:54:18;6.50;;;4.60;;
12437;SDS011;6283;51.330;12.374;2022-09-13T03:59:31;4.70;;;4.23;;
12437;SDS011;6283;51.330;12.374;2022-09-13T04:01:56;5.47;;;4.60;;
12437;SDS011;6283;51.330;12.374;2022-09-13T04:04:22;5.97;;;4.93;;
12437;SDS011;6283;51.330;12.374;2022-09-13T04:06:47;5.73;;;4.70;;
12437;SDS011;6283;51.330;12.374;2022-09-13T04:09:13;5.80;;;4.90;;
12437;SDS011;6283;51.330;12.374;2022-09-13T04:11:39;5.13;;;4.70;;
12437;SDS011;6283;51.330;12.374;2022-09-13T04:14:04;6.50;;;5.00;;
12437;SDS011;6283;51.330;12.374;2022-09-13T04:16:30;7.80;;;5.00;;
12437;SDS011;6283;51.330;12.374;2022-09-13T04:18:56;5.87;;;4.93;;
12437;SDS011;6283;51.330;12.374;2022-09-13T04:21:21;7.13;;;5.07;;
12437;SDS011;6283;51.330;12.374;2022-09-13T04:23:48;9.10;;;5.43;;
12437;SDS011;6283;51.330;12.374;2022-09-13T04:26:14;5.77;;;4.60;;
12437;SDS011;6283;51.330;12.374;2022-09-13T04:28:40;5.60;;;4.70;;
12437;SDS011;6283;51.330;12.374;2022-09-13T04:31:05;7.13;;;4.70;;
12437;SDS011;6283;51.330;12.374;2022-09-13T04:33:31;5.50;;;5.00;;
12437;SDS011;6283;51.330;12.374;2022-09-13T04:35:57;7.30;;;5.03;;
12437;SDS011;6283;51.330;12.374;2022-09-13T04:38:23;5.23;;;4.37;;
12437;SDS011;6283;51.330;12.374;2022-09-13T04:40:55;5.23;;;4.73;;
12437;SDS011;6283;51.330;12.374;2022-09-13T04:43:21;5.30;;;4.80;;
12437;SDS011;6283;51.330;12.374;2022-09-13T04:45:47;6.63;;;5.40;;
12437;SDS011;6283;51.330;12.374;2022-09-13T04:48:13;5.93;;;5.23;;
12437;SDS011;6283;51.330;12.374;2022-09-13T04:50:39;6.40;;;5.07;;
12437;SDS011;6283;51.330;12.374;2022-09-13T04:53:05;5.60;;;5.07;;
12437;SDS011;6283;51.330;12.374;2022-09-13T04:55:30;5.63;;;4.63;;
12437;SDS011;6283;51.330;12.374;2022-09-13T04:57:56;8.23;;;5.70;;
12437;SDS011;6283;51.330;12.374;2022-09-13T05:00:22;7.13;;;5.40;;
12437;SDS011;6283;51.330;12.374;2022-09-13T05:02:53;6.17;;;5.50;;
12437;SDS011;6283;51.330;12.374;2022-09-13T05:05:19;8.20;;;5.43;;
12437;SDS011;6283;51.330;12.374;2022-09-13T05:07:44;8.10;;;6.10;;
12437;SDS011;6283;51.330;12.374;2022-09-13T05:10:13;8.00;;;5.73;;
12437;SDS011;6283;51.330;12.374;2022-09-13T05:12:39;7.70;;;5.50;;
12437;SDS011;6283;51.330;12.374;2022-09-13T05:15:05;7.07;;;5.43;;
12437;SDS011;6283;51.330;12.374;2022-09-13T05:17:31;6.20;;;5.60;;
12437;SDS011;6283;51.330;12.374;2022-09-13T05:19:57;6.77;;;5.23;;
12437;SDS011;6283;51.330;12.374;2022-09-13T05:22:22;6.30;;;5.40;;
12437;SDS011;6283;51.330;12.374;2022-09-13T05:24:48;7.33;;;5.30;;
12437;SDS011;6283;51.330;12.374;2022-09-13T05:27:13;6.33;;;5.50;;
12437;SDS011;6283;51.330;12.374;2022-09-13T05:29:39;7.17;;;5.87;;
12437;SDS011;6283;51.330;12.374;2022-09-13T05:32:04;6.87;;;5.53;;
12437;SDS011;6283;51.330;12.374;2022-09-13T05:34:30;8.50;;;5.40;;
12437;SDS011;6283;51.330;12.374;2022-09-13T05:36:56;7.43;;;5.50;;
12437;SDS011;6283;51.330;12.374;2022-09-13T05:39:21;7.63;;;5.63;;
12437;SDS011;6283;51.330;12.374;2022-09-13T05:41:47;6.57;;;5.10;;
12437;SDS011;6283;51.330;12.374;2022-09-13T05:44:13;6.97;;;5.60;;
12437;SDS011;6283;51.330;12.374;2022-09-13T05:46:38;5.87;;;5.37;;
12437;SDS011;6283;51.330;12.374;2022-09-13T19:09:24;8.98;;;5.90;;
12437;SDS011;6283;51.330;12.374;2022-09-13T19:11:50;6.18;;;5.50;;
12437;SDS011;6283;51.330;12.374;2022-09-13T19:14:18;7.68;;;6.88;;
12437;SDS011;6283;51.330;12.374;2022-09-13T19:16:47;7.15;;;6.45;;
12437;SDS011;6283;51.330;12.374;2022-09-13T19:19:13;8.13;;;6.70;;
12437;SDS011;6283;51.330;12.374;2022-09-13T19:21:39;9.13;;;6.50;;
12437;SDS011;6283;51.330;12.374;2022-09-13T19:24:04;9.93;;;6.25;;
12437;SDS011;6283;51.330;12.374;2022-09-13T19:26:31;6.88;;;6.15;;
12437;SDS011;6283;51.330;12.374;2022-09-13T19:29:00;9.57;;;5.90;;
12437;SDS011;6283;51.330;12.374;2022-09-13T19:31:30;9.85;;;7.13;;
12437;SDS011;6283;51.330;12.374;2022-09-13T19:33:57;6.70;;;5.85;;
12437;SDS011;6283;51.330;12.374;2022-09-13T19:36:24;7.97;;;6.70;;
12437;SDS011;6283;51.330;12.374;2022-09-13T19:38:51;7.70;;;6.50;;
12437;SDS011;6283;51.330;12.374;2022-09-13T19:41:19;8.20;;;6.95;;
12437;SDS011;6283;51.330;12.374;2022-09-13T19:43:47;8.10;;;6.85;;
12437;SDS011;6283;51.330;12.374;2022-09-13T19:46:15;7.18;;;6.20;;
12437;SDS011;6283;51.330;12.374;2022-09-13T19:48:46;7.30;;;6.22;;
12437;SDS011;6283;51.330;12.374;2022-09-13T19:51:17;7.57;;;6.43;;
12437;SDS011;6283;51.330;12.374;2022-09-13T19:53:51;6.65;;;6.03;;
12437;SDS011;6283;51.330;12.374;2022-09-13T19:56:18;7.82;;;6.22;;
12437;SDS011;6283;51.330;12.374;2022-09-13T19:58:46;6.38;;;5.78;;
12437;SDS011;6283;51.330;12.374;2022-09-13T20:01:14;6.18;;;5.55;;
12437;SDS011;6283;51.330;12.374;2022-09-13T20:03:41;6.15;;;5.55;;
12437;SDS011;6283;51.330;12.374;2022-09-13T20:06:09;6.57;;;5.60;;
12437;SDS011;6283;51.330;12.374;2022-09-13T20:08:36;7.78;;;5.75;;
12437;SDS011;6283;51.330;12.374;2022-09-13T20:11:05;7.90;;;6.38;;
12437;SDS011;6283;51.330;12.374;2022-09-13T20:13:32;6.32;;;5.63;;
12437;SDS011;6283;51.330;12.374;2022-09-13T20:15:59;6.25;;;5.65;;
12437;SDS011;6283;51.330;12.374;2022-09-13T20:18:27;5.85;;;5.25;;
12437;SDS011;6283;51.330;12.374;2022-09-13T20:20:53;6.00;;;5.47;;
12437;SDS011;6283;51.330;12.374;2022-09-13T20:23:21;6.53;;;5.53;;
12437;SDS011;6283;51.330;12.374;2022-09-13T20:25:48;6.70;;;5.78;;
12437;SDS011;6283;51.330;12.374;2022-09-13T20:28:14;6.63;;;5.70;;
12437;SDS011;6283;51.330;12.374;2022-09-13T20:30:40;12.52;;;8.88;;
12437;SDS011;6283;51.330;12.374;2022-09-13T20:33:06;6.40;;;5.80;;
12437;SDS011;6283;51.330;12.374;2022-09-13T20:35:36;8.48;;;5.95;;
12437;SDS011;6283;51.330;12.374;2022-09-13T20:38:03;8.57;;;6.13;;
12437;SDS011;6283;51.330;12.374;2022-09-13T20:40:29;7.90;;;7.03;;
12437;SDS011;6283;51.330;12.374;2022-09-13T20:42:54;8.50;;;6.15;;
12437;SDS011;6283;51.330;12.374;2022-09-13T20:45:20;7.47;;;6.78;;
12437;SDS011;6283;51.330;12.374;2022-09-13T20:47:46;9.18;;;7.05;;
12437;SDS011;6283;51.330;12.374;2022-09-13T20:50:12;7.65;;;6.93;;
12437;SDS011;6283;51.330;12.374;2022-09-13T20:52:37;7.00;;;6.15;;
12437;SDS011;6283;51.330;12.374;2022-09-13T20:55:03;8.18;;;7.38;;
12437;SDS011;6283;51.330;12.374;2022-09-13T20:57:29;9.75;;;7.03;;
12437;SDS011;6283;51.330;12.374;2022-09-13T20:59:55;7.90;;;7.10;;
12437;SDS011;6283;51.330;12.374;2022-09-13T21:02:20;8.70;;;7.53;;
12437;SDS011;6283;51.330;12.374;2022-09-13T21:04:46;8.02;;;7.28;;
12437;SDS011;6283;51.330;12.374;2022-09-13T21:07:11;7.53;;;6.85;;
12437;SDS011;6283;51.330;12.374;2022-09-13T21:09:56;6.90;;;6.30;;
12437;SDS011;6283;51.330;12.374;2022-09-13T21:12:25;7.68;;;6.88;;
12437;SDS011;6283;51.330;12.374;2022-09-13T21:14:51;8.25;;;7.07;;
12437;SDS011;6283;51.330;12.374;2022-09-13T21:17:17;8.20;;;7.35;;
12437;SDS011;6283;51.330;12.374;2022-09-13T21:19:42;8.40;;;7.40;;
12437;SDS011;6283;51.330;12.374;2022-09-13T21:22:08;7.53;;;6.82;;
12437;SDS011;6283;51.330;12.374;2022-09-13T21:24:34;9.48;;;7.90;;
12437;SDS011;6283;51.330;12.374;2022-09-13T21:27:00;9.30;;;7.57;;
12437;SDS011;6283;51.330;12.374;2022-09-13T21:29:26;8.40;;;6.80;;
12437;SDS011;6283;51.330;12.374;2022-09-13T21:31:52;7.78;;;6.97;;
12437;SDS011;6283;51.330;12.374;2022-09-13T21:34:18;7.68;;;6.90;;
12437;SDS011;6283;51.330;12.374;2022-09-13T21:36:44;8.07;;;7.05;;
12437;SDS011;6283;51.330;12.374;2022-09-13T21:39:10;8.93;;;7.18;;
12437;SDS011;6283;51.330;12.374;2022-09-13T21:41:37;7.05;;;6.38;;
12437;SDS011;6283;51.330;12.374;2022-09-13T21:44:02;8.15;;;7.03;;
12437;SDS011;6283;51.330;12.374;2022-09-13T21:46:29;8.95;;;7.80;;
12437;SDS011;6283;51.330;12.374;2022-09-13T21:48:58;9.45;;;7.40;;
12437;SDS011;6283;51.330;12.374;2022-09-13T21:51:32;9.15;;;7.65;;
12437;SDS011;6283;51.330;12.374;2022-09-13T21:54:03;9.18;;;7.22;;
12437;SDS011;6283;51.330;12.374;2022-09-13T21:56:30;10.15;;;8.70;;
12437;SDS011;6283;51.330;12.374;2022-09-13T21:59:01;12.30;;;8.95;;
12437;SDS011;6283;51.330;12.374;2022-09-13T22:01:32;9.27;;;8.38;;
12437;SDS011;6283;51.330;12.374;2022-09-13T22:04:00;9.98;;;8.82;;
12437;SDS011;6283;51.330;12.374;2022-09-13T22:06:26;10.32;;;9.13;;
12437;SDS011;6283;51.330;12.374;2022-09-13T22:08:55;11.45;;;8.73;;
12437;SDS011;6283;51.330;12.374;2022-09-13T22:11:23;12.00;;;9.13;;
12437;SDS011;6283;51.330;12.374;2022-09-13T22:13:53;11.15;;;7.85;;
12437;SDS011;6283;51.330;12.374;2022-09-13T22:16:24;8.82;;;7.47;;
12437;SDS011;6283;51.330;12.374;2022-09-13T22:18:52;8.82;;;7.93;;
12437;SDS011;6283;51.330;12.374;2022-09-13T22:21:22;9.30;;;8.35;;
12437;SDS011;6283;51.330;12.374;2022-09-13T22:23:49;10.32;;;7.82;;
12437;SDS011;6283;51.330;12.374;2022-09-13T22:26:16;10.68;;;8.25;;
12437;SDS011;6283;51.330;12.374;2022-09-13T22:28:44;9.32;;;7.97;;
12437;SDS011;6283;51.330;12.374;2022-09-13T22:31:11;9.02;;;7.35;;
12437;SDS011;6283;51.330;12.374;2022-09-13T22:33:39;8.25;;;7.18;;
12437;SDS011;6283;51.330;12.374;2022-09-13T22:36:06;8.43;;;7.55;;
12437;SDS011;6283;51.330;12.374;2022-09-13T22:38:34;8.50;;;7.60;;
12437;SDS011;6283;51.330;12.374;2022-09-13T22:41:02;8.65;;;7.65;;
12437;SDS011;6283;51.330;12.374;2022-09-13T22:43:30;8.88;;;7.60;;
12437;SDS011;6283;51.330;12.374;2022-09-13T22:48:51;7.88;;;7.10;;
12437;SDS011;6283;51.330;12.374;2022-09-13T22:51:18;9.15;;;8.35;;
12437;SDS011;6283;51.330;12.374;2022-09-13T22:53:44;9.18;;;7.53;;
12437;SDS011;6283;51.330;12.374;2022-09-13T22:56:12;8.10;;;7.28;;
12437;SDS011;6283;51.330;12.374;2022-09-13T22:58:40;8.25;;;7.50;;
12437;SDS011;6283;51.330;12.374;2022-09-13T23:03:34;10.25;;;8.63;;
12437;SDS011;6283;51.330;12.374;2022-09-13T23:06:03;8.95;;;8.02;;
12437;SDS011;6283;51.330;12.374;2022-09-13T23:08:30;10.30;;;9.07;;
12437;SDS011;6283;51.330;12.374;2022-09-13T23:11:02;8.90;;;7.95;;
12437;SDS011;6283;51.330;12.374;2022-09-13T23:13:36;8.95;;;8.05;;
12437;SDS011;6283;51.330;12.374;2022-09-13T23:16:02;10.18;;;8.32;;
12437;SDS011;6283;51.330;12.374;2022-09-13T23:18:30;10.00;;;8.98;;
12437;SDS011;6283;51.330;12.374;2022-09-13T23:20:56;11.75;;;8.90;;
12437;SDS011;6283;51.330;12.374;2022-09-13T23:23:23;9.15;;;8.25;;
12437;SDS011;6283;51.330;12.374;2022-09-13T23:25:48;10.85;;;8.90;;
12437;SDS011;6283;51.330;12.374;2022-09-13T23:28:14;10.43;;;8.70;;
12437;SDS011;6283;51.330;12.374;2022-09-13T23:30:40;10.68;;;8.85;;
12437;SDS011;6283;51.330;12.374;2022-09-13T23:33:06;9.95;;;8.95;;
12437;SDS011;6283;51.330;12.374;2022-09-13T23:35:35;10.20;;;9.10;;
12437;SDS011;6283;51.330;12.374;2022-09-13T23:38:02;9.10;;;8.23;;
12437;SDS011;6283;51.330;12.374;2022-09-13T23:40:29;9.35;;;8.38;;
12437;SDS011;6283;51.330;12.374;2022-09-13T23:42:55;9.70;;;8.70;;
12437;SDS011;6283;51.330;12.374;2022-09-13T23:45:22;11.93;;;9.63;;
12437;SDS011;6283;51.330;12.374;2022-09-13T23:47:48;9.93;;;8.93;;
12437;SDS011;6283;51.330;12.374;2022-09-13T23:50:14;9.07;;;8.27;;
12437;SDS011;6283;51.330;12.374;2022-09-13T23:52:40;9.82;;;8.85;;
12437;SDS011;6283;51.330;12.374;2022-09-13T23:55:05;9.13;;;8.23;;
12437;SDS011;6283;51.330;12.374;2022-09-13T23:57:31;8.90;;;8.00;;
12437;SDS011;6283;51.330;12.374;2022-09-13T23:59:57;9.15;;;8.32;;
